sensor_id;sensor_type;location;lat;lon;timestamp;P1;durP1;ratioP1;P2;durP2;ratioP2
82948;SDS011;72736;50.236;18.876;2023-09-30T00:02:28;14.40;;;9.00;;
82948;SDS011;72736;50.236;18.876;2023-09-30T00:07:33;13.90;;;8.90;;
82948;SDS011;72736;50.236;18.876;2023-09-30T00:12:39;15.00;;;8.60;;
82948;SDS011;72736;50.236;18.876;2023-09-30T00:17:46;15.10;;;8.30;;
82948;SDS011;72736;50.236;18.876;2023-09-30T00:27:55;16.30;;;9.40;;
82948;SDS011;72736;50.236;18.876;2023-09-30T00:33:01;17.60;;;9.50;;
82948;SDS011;72736;50.236;18.876;2023-09-30T00:38:07;14.40;;;9.00;;
82948;SDS011;72736;50.236;18.876;2023-09-30T00:43:18;17.50;;;9.20;;
82948;SDS011;72736;50.236;18.876;2023-09-30T00:48:24;17.50;;;9.30;;
82948;SDS011;72736;50.236;18.876;2023-09-30T00:53:30;15.10;;;9.20;;
82948;SDS011;72736;50.236;18.876;2023-09-30T00:58:37;13.40;;;8.60;;
82948;SDS011;72736;50.236;18.876;2023-09-30T01:03:43;15.60;;;9.20;;
82948;SDS011;72736;50.236;18.876;2023-09-30T01:08:50;17.70;;;9.50;;
82948;SDS011;72736;50.236;18.876;2023-09-30T01:13:57;16.10;;;9.60;;
82948;SDS011;72736;50.236;18.876;2023-09-30T01:19:03;17.90;;;9.10;;
82948;SDS011;72736;50.236;18.876;2023-09-30T01:24:09;15.50;;;9.10;;
82948;SDS011;72736;50.236;18.876;2023-09-30T01:29:14;14.00;;;9.00;;
82948;SDS011;72736;50.236;18.876;2023-09-30T01:39:24;15.60;;;8.70;;
82948;SDS011;72736;50.236;18.876;2023-09-30T01:49:35;15.80;;;9.20;;
82948;SDS011;72736;50.236;18.876;2023-09-30T01:54:41;16.40;;;8.80;;
82948;SDS011;72736;50.236;18.876;2023-09-30T01:59:47;16.20;;;9.30;;
82948;SDS011;72736;50.236;18.876;2023-09-30T02:09:57;14.20;;;8.40;;
82948;SDS011;72736;50.236;18.876;2023-09-30T02:15:04;13.30;;;8.30;;
82948;SDS011;72736;50.236;18.876;2023-09-30T02:20:11;14.60;;;7.70;;
82948;SDS011;72736;50.236;18.876;2023-09-30T02:25:22;16.00;;;8.10;;
82948;SDS011;72736;50.236;18.876;2023-09-30T02:30:27;12.50;;;7.80;;
82948;SDS011;72736;50.236;18.876;2023-09-30T02:35:33;13.40;;;9.00;;
82948;SDS011;72736;50.236;18.876;2023-09-30T02:40:41;13.80;;;8.00;;
82948;SDS011;72736;50.236;18.876;2023-09-30T02:45:49;13.90;;;7.50;;
82948;SDS011;72736;50.236;18.876;2023-09-30T02:50:56;12.20;;;6.90;;
82948;SDS011;72736;50.236;18.876;2023-09-30T02:56:01;12.20;;;7.60;;
82948;SDS011;72736;50.236;18.876;2023-09-30T03:01:07;16.60;;;9.10;;
82948;SDS011;72736;50.236;18.876;2023-09-30T03:06:14;15.10;;;10.10;;
82948;SDS011;72736;50.236;18.876;2023-09-30T03:11:22;15.50;;;8.80;;
82948;SDS011;72736;50.236;18.876;2023-09-30T03:16:28;15.00;;;9.20;;
82948;SDS011;72736;50.236;18.876;2023-09-30T03:21:35;14.30;;;9.30;;
82948;SDS011;72736;50.236;18.876;2023-09-30T03:26:42;14.20;;;9.30;;
82948;SDS011;72736;50.236;18.876;2023-09-30T03:31:48;17.10;;;9.20;;
82948;SDS011;72736;50.236;18.876;2023-09-30T03:36:55;15.90;;;9.50;;
82948;SDS011;72736;50.236;18.876;2023-09-30T03:42:03;14.10;;;9.10;;
82948;SDS011;72736;50.236;18.876;2023-09-30T03:47:09;17.90;;;9.30;;
82948;SDS011;72736;50.236;18.876;2023-09-30T03:52:15;20.60;;;9.40;;
82948;SDS011;72736;50.236;18.876;2023-09-30T03:57:21;14.40;;;9.20;;
82948;SDS011;72736;50.236;18.876;2023-09-30T04:07:31;12.70;;;8.20;;
82948;SDS011;72736;50.236;18.876;2023-09-30T04:12:39;15.40;;;8.60;;
82948;SDS011;72736;50.236;18.876;2023-09-30T04:17:45;15.20;;;8.80;;
82948;SDS011;72736;50.236;18.876;2023-09-30T04:22:51;19.70;;;10.60;;
82948;SDS011;72736;50.236;18.876;2023-09-30T04:28:01;15.10;;;10.00;;
82948;SDS011;72736;50.236;18.876;2023-09-30T04:33:07;16.10;;;9.10;;
82948;SDS011;72736;50.236;18.876;2023-09-30T04:38:15;16.60;;;9.50;;
82948;SDS011;72736;50.236;18.876;2023-09-30T04:43:22;15.90;;;8.40;;
82948;SDS011;72736;50.236;18.876;2023-09-30T04:48:32;16.10;;;8.70;;
82948;SDS011;72736;50.236;18.876;2023-09-30T04:53:38;16.30;;;8.90;;
82948;SDS011;72736;50.236;18.876;2023-09-30T04:58:44;15.30;;;9.10;;
82948;SDS011;72736;50.236;18.876;2023-09-30T05:03:49;12.50;;;8.70;;
82948;SDS011;72736;50.236;18.876;2023-09-30T05:08:56;13.20;;;9.40;;
82948;SDS011;72736;50.236;18.876;2023-09-30T05:14:03;15.60;;;8.60;;
82948;SDS011;72736;50.236;18.876;2023-09-30T05:19:09;14.20;;;9.00;;
82948;SDS011;72736;50.236;18.876;2023-09-30T05:24:14;14.50;;;8.90;;
82948;SDS011;72736;50.236;18.876;2023-09-30T05:29:22;14.50;;;8.40;;
82948;SDS011;72736;50.236;18.876;2023-09-30T05:34:27;14.80;;;8.50;;
82948;SDS011;72736;50.236;18.876;2023-09-30T05:44:37;12.60;;;8.30;;
82948;SDS011;72736;50.236;18.876;2023-09-30T05:49:44;12.60;;;7.90;;
82948;SDS011;72736;50.236;18.876;2023-09-30T05:54:49;15.00;;;8.70;;
82948;SDS011;72736;50.236;18.876;2023-09-30T05:59:55;14.20;;;8.90;;
82948;SDS011;72736;50.236;18.876;2023-09-30T06:10:07;11.80;;;8.40;;
82948;SDS011;72736;50.236;18.876;2023-09-30T06:15:14;12.70;;;8.20;;
82948;SDS011;72736;50.236;18.876;2023-09-30T06:20:25;13.70;;;9.10;;
82948;SDS011;72736;50.236;18.876;2023-09-30T06:25:34;15.10;;;8.40;;
82948;SDS011;72736;50.236;18.876;2023-09-30T06:30:40;14.40;;;8.80;;
82948;SDS011;72736;50.236;18.876;2023-09-30T06:35:49;16.40;;;9.40;;
82948;SDS011;72736;50.236;18.876;2023-09-30T06:40:55;15.60;;;9.20;;
82948;SDS011;72736;50.236;18.876;2023-09-30T06:46:04;18.20;;;10.70;;
82948;SDS011;72736;50.236;18.876;2023-09-30T06:56:20;16.00;;;10.20;;
82948;SDS011;72736;50.236;18.876;2023-09-30T07:01:26;17.80;;;10.60;;
82948;SDS011;72736;50.236;18.876;2023-09-30T07:06:31;18.60;;;11.40;;
82948;SDS011;72736;50.236;18.876;2023-09-30T07:11:37;16.20;;;10.50;;
82948;SDS011;72736;50.236;18.876;2023-09-30T07:16:43;18.90;;;11.60;;
82948;SDS011;72736;50.236;18.876;2023-09-30T07:21:49;18.20;;;12.70;;
82948;SDS011;72736;50.236;18.876;2023-09-30T07:27:06;18.80;;;12.70;;
82948;SDS011;72736;50.236;18.876;2023-09-30T07:32:29;16.30;;;11.80;;
82948;SDS011;72736;50.236;18.876;2023-09-30T07:42:39;20.10;;;10.80;;
82948;SDS011;72736;50.236;18.876;2023-09-30T07:47:45;17.70;;;11.20;;
82948;SDS011;72736;50.236;18.876;2023-09-30T07:52:52;17.50;;;11.10;;
82948;SDS011;72736;50.236;18.876;2023-09-30T07:57:58;19.80;;;11.40;;
82948;SDS011;72736;50.236;18.876;2023-09-30T08:03:04;19.00;;;11.50;;
82948;SDS011;72736;50.236;18.876;2023-09-30T08:08:10;17.90;;;11.40;;
82948;SDS011;72736;50.236;18.876;2023-09-30T08:13:17;17.30;;;11.60;;
82948;SDS011;72736;50.236;18.876;2023-09-30T08:18:23;19.30;;;11.60;;
82948;SDS011;72736;50.236;18.876;2023-09-30T08:23:30;19.10;;;12.50;;
82948;SDS011;72736;50.236;18.876;2023-09-30T08:28:35;17.20;;;11.60;;
82948;SDS011;72736;50.236;18.876;2023-09-30T08:33:41;20.50;;;12.50;;
82948;SDS011;72736;50.236;18.876;2023-09-30T08:38:49;21.00;;;12.70;;
82948;SDS011;72736;50.236;18.876;2023-09-30T08:43:54;20.90;;;13.00;;
82948;SDS011;72736;50.236;18.876;2023-09-30T08:49:03;21.20;;;13.30;;
82948;SDS011;72736;50.236;18.876;2023-09-30T08:54:10;20.10;;;12.50;;
82948;SDS011;72736;50.236;18.876;2023-09-30T08:59:16;21.10;;;13.20;;
82948;SDS011;72736;50.236;18.876;2023-09-30T09:04:22;22.30;;;13.50;;
82948;SDS011;72736;50.236;18.876;2023-09-30T09:09:28;22.90;;;13.50;;
82948;SDS011;72736;50.236;18.876;2023-09-30T09:14:40;22.30;;;14.50;;
82948;SDS011;72736;50.236;18.876;2023-09-30T09:19:49;21.80;;;14.70;;
82948;SDS011;72736;50.236;18.876;2023-09-30T09:25:10;25.90;;;15.40;;
82948;SDS011;72736;50.236;18.876;2023-09-30T09:30:17;23.30;;;15.20;;
82948;SDS011;72736;50.236;18.876;2023-09-30T09:35:24;24.30;;;14.80;;
82948;SDS011;72736;50.236;18.876;2023-09-30T09:40:32;27.50;;;16.50;;
82948;SDS011;72736;50.236;18.876;2023-09-30T09:45:40;24.30;;;14.80;;
82948;SDS011;72736;50.236;18.876;2023-09-30T09:50:47;22.30;;;13.70;;
82948;SDS011;72736;50.236;18.876;2023-09-30T09:55:55;22.30;;;15.10;;
82948;SDS011;72736;50.236;18.876;2023-09-30T10:01:03;22.60;;;14.90;;
82948;SDS011;72736;50.236;18.876;2023-09-30T10:06:13;23.60;;;14.70;;
82948;SDS011;72736;50.236;18.876;2023-09-30T10:11:20;22.70;;;14.40;;
82948;SDS011;72736;50.236;18.876;2023-09-30T10:27:33;21.20;;;12.70;;
82948;SDS011;72736;50.236;18.876;2023-09-30T10:38:38;19.80;;;13.60;;
82948;SDS011;72736;50.236;18.876;2023-09-30T10:43:44;17.40;;;9.80;;
82948;SDS011;72736;50.236;18.876;2023-09-30T10:48:50;13.90;;;8.60;;
82948;SDS011;72736;50.236;18.876;2023-09-30T10:53:56;16.60;;;10.10;;
82948;SDS011;72736;50.236;18.876;2023-09-30T10:59:03;13.40;;;8.60;;
82948;SDS011;72736;50.236;18.876;2023-09-30T11:04:09;14.60;;;9.20;;
82948;SDS011;72736;50.236;18.876;2023-09-30T11:09:17;12.20;;;7.60;;
82948;SDS011;72736;50.236;18.876;2023-09-30T11:14:25;14.70;;;7.70;;
82948;SDS011;72736;50.236;18.876;2023-09-30T11:19:35;9.80;;;5.70;;
82948;SDS011;72736;50.236;18.876;2023-09-30T11:24:49;10.50;;;5.50;;
82948;SDS011;72736;50.236;18.876;2023-09-30T11:29:55;10.40;;;5.00;;
82948;SDS011;72736;50.236;18.876;2023-09-30T11:35:02;10.30;;;5.40;;
82948;SDS011;72736;50.236;18.876;2023-09-30T11:40:11;9.10;;;4.80;;
82948;SDS011;72736;50.236;18.876;2023-09-30T11:45:21;8.80;;;5.00;;
82948;SDS011;72736;50.236;18.876;2023-09-30T11:50:27;9.90;;;5.30;;
82948;SDS011;72736;50.236;18.876;2023-09-30T11:55:50;9.80;;;4.90;;
82948;SDS011;72736;50.236;18.876;2023-09-30T12:00:57;12.70;;;6.10;;
82948;SDS011;72736;50.236;18.876;2023-09-30T12:06:03;10.30;;;5.20;;
82948;SDS011;72736;50.236;18.876;2023-09-30T12:11:09;13.20;;;6.60;;
82948;SDS011;72736;50.236;18.876;2023-09-30T12:16:16;11.10;;;6.30;;
82948;SDS011;72736;50.236;18.876;2023-09-30T12:21:22;11.90;;;6.20;;
82948;SDS011;72736;50.236;18.876;2023-09-30T12:26:27;12.10;;;5.90;;
82948;SDS011;72736;50.236;18.876;2023-09-30T12:31:33;14.20;;;6.80;;
82948;SDS011;72736;50.236;18.876;2023-09-30T12:36:54;12.40;;;6.70;;
82948;SDS011;72736;50.236;18.876;2023-09-30T12:42:00;14.50;;;6.80;;
82948;SDS011;72736;50.236;18.876;2023-09-30T12:47:12;11.30;;;6.20;;
82948;SDS011;72736;50.236;18.876;2023-09-30T12:52:17;13.30;;;6.70;;
82948;SDS011;72736;50.236;18.876;2023-09-30T12:57:23;12.20;;;6.60;;
82948;SDS011;72736;50.236;18.876;2023-09-30T13:02:29;11.60;;;6.20;;
82948;SDS011;72736;50.236;18.876;2023-09-30T13:07:35;12.10;;;5.50;;
82948;SDS011;72736;50.236;18.876;2023-09-30T13:12:40;12.40;;;6.30;;
82948;SDS011;72736;50.236;18.876;2023-09-30T13:17:46;12.60;;;6.00;;
82948;SDS011;72736;50.236;18.876;2023-09-30T13:22:52;11.70;;;5.40;;
82948;SDS011;72736;50.236;18.876;2023-09-30T13:27:57;11.80;;;5.80;;
82948;SDS011;72736;50.236;18.876;2023-09-30T13:33:04;11.20;;;6.00;;
82948;SDS011;72736;50.236;18.876;2023-09-30T13:38:09;10.60;;;5.50;;
82948;SDS011;72736;50.236;18.876;2023-09-30T13:43:15;12.80;;;5.90;;
82948;SDS011;72736;50.236;18.876;2023-09-30T13:48:21;14.30;;;6.30;;
82948;SDS011;72736;50.236;18.876;2023-09-30T13:53:27;9.30;;;4.90;;
82948;SDS011;72736;50.236;18.876;2023-09-30T13:58:33;8.60;;;4.50;;
82948;SDS011;72736;50.236;18.876;2023-09-30T14:03:39;9.00;;;4.40;;
82948;SDS011;72736;50.236;18.876;2023-09-30T14:08:46;8.90;;;4.30;;
82948;SDS011;72736;50.236;18.876;2023-09-30T14:13:53;10.30;;;5.10;;
82948;SDS011;72736;50.236;18.876;2023-09-30T14:18:59;10.30;;;3.30;;
82948;SDS011;72736;50.236;18.876;2023-09-30T14:24:05;8.20;;;3.70;;
82948;SDS011;72736;50.236;18.876;2023-09-30T14:29:11;9.60;;;3.70;;
82948;SDS011;72736;50.236;18.876;2023-09-30T14:34:17;7.90;;;2.90;;
82948;SDS011;72736;50.236;18.876;2023-09-30T14:39:22;7.00;;;2.60;;
82948;SDS011;72736;50.236;18.876;2023-09-30T14:44:29;7.70;;;2.80;;
82948;SDS011;72736;50.236;18.876;2023-09-30T14:49:36;6.30;;;2.30;;
82948;SDS011;72736;50.236;18.876;2023-09-30T14:54:41;8.90;;;2.30;;
82948;SDS011;72736;50.236;18.876;2023-09-30T14:59:47;7.60;;;3.10;;
82948;SDS011;72736;50.236;18.876;2023-09-30T15:04:53;9.10;;;2.70;;
82948;SDS011;72736;50.236;18.876;2023-09-30T15:09:59;7.70;;;2.60;;
82948;SDS011;72736;50.236;18.876;2023-09-30T15:15:06;7.70;;;2.90;;
82948;SDS011;72736;50.236;18.876;2023-09-30T15:20:13;10.00;;;2.80;;
82948;SDS011;72736;50.236;18.876;2023-09-30T15:25:19;7.70;;;2.70;;
82948;SDS011;72736;50.236;18.876;2023-09-30T15:30:25;12.00;;;4.50;;
82948;SDS011;72736;50.236;18.876;2023-09-30T15:35:32;11.10;;;4.40;;
82948;SDS011;72736;50.236;18.876;2023-09-30T15:40:49;8.80;;;3.10;;
82948;SDS011;72736;50.236;18.876;2023-09-30T15:45:56;9.60;;;3.20;;
82948;SDS011;72736;50.236;18.876;2023-09-30T15:51:03;8.60;;;3.30;;
82948;SDS011;72736;50.236;18.876;2023-09-30T15:56:09;7.60;;;3.20;;
82948;SDS011;72736;50.236;18.876;2023-09-30T16:01:15;8.80;;;3.30;;
82948;SDS011;72736;50.236;18.876;2023-09-30T16:06:21;14.00;;;4.00;;
82948;SDS011;72736;50.236;18.876;2023-09-30T16:11:27;8.60;;;3.30;;
82948;SDS011;72736;50.236;18.876;2023-09-30T16:16:35;9.90;;;3.90;;
82948;SDS011;72736;50.236;18.876;2023-09-30T16:21:40;15.30;;;6.70;;
82948;SDS011;72736;50.236;18.876;2023-09-30T16:26:46;16.50;;;7.90;;
82948;SDS011;72736;50.236;18.876;2023-09-30T16:31:52;23.40;;;10.40;;
82948;SDS011;72736;50.236;18.876;2023-09-30T16:36:58;44.60;;;23.00;;
82948;SDS011;72736;50.236;18.876;2023-09-30T16:42:04;52.50;;;26.30;;
82948;SDS011;72736;50.236;18.876;2023-09-30T16:47:10;36.90;;;18.10;;
82948;SDS011;72736;50.236;18.876;2023-09-30T16:52:15;19.50;;;7.90;;
82948;SDS011;72736;50.236;18.876;2023-09-30T16:57:21;10.10;;;4.50;;
82948;SDS011;72736;50.236;18.876;2023-09-30T17:02:27;7.80;;;3.10;;
82948;SDS011;72736;50.236;18.876;2023-09-30T17:07:33;9.90;;;4.00;;
82948;SDS011;72736;50.236;18.876;2023-09-30T17:12:39;10.20;;;3.10;;
82948;SDS011;72736;50.236;18.876;2023-09-30T17:17:45;11.10;;;3.40;;
82948;SDS011;72736;50.236;18.876;2023-09-30T17:22:50;10.90;;;4.50;;
82948;SDS011;72736;50.236;18.876;2023-09-30T17:27:56;12.90;;;5.20;;
82948;SDS011;72736;50.236;18.876;2023-09-30T17:33:02;11.10;;;5.00;;
82948;SDS011;72736;50.236;18.876;2023-09-30T17:38:08;14.30;;;5.20;;
82948;SDS011;72736;50.236;18.876;2023-09-30T17:43:14;15.10;;;5.40;;
82948;SDS011;72736;50.236;18.876;2023-09-30T17:48:20;12.00;;;4.50;;
82948;SDS011;72736;50.236;18.876;2023-09-30T17:53:26;13.30;;;5.20;;
82948;SDS011;72736;50.236;18.876;2023-09-30T17:58:33;13.50;;;5.60;;
82948;SDS011;72736;50.236;18.876;2023-09-30T18:08:43;8.70;;;4.20;;
82948;SDS011;72736;50.236;18.876;2023-09-30T18:13:50;7.50;;;4.00;;
82948;SDS011;72736;50.236;18.876;2023-09-30T18:18:56;8.20;;;3.70;;
82948;SDS011;72736;50.236;18.876;2023-09-30T18:29:06;6.30;;;3.40;;
82948;SDS011;72736;50.236;18.876;2023-09-30T18:34:13;8.10;;;3.60;;
82948;SDS011;72736;50.236;18.876;2023-09-30T18:39:18;8.80;;;4.00;;
82948;SDS011;72736;50.236;18.876;2023-09-30T18:44:29;9.00;;;3.80;;
82948;SDS011;72736;50.236;18.876;2023-09-30T18:49:34;14.60;;;6.30;;
82948;SDS011;72736;50.236;18.876;2023-09-30T18:59:44;14.00;;;6.20;;
82948;SDS011;72736;50.236;18.876;2023-09-30T19:04:51;16.30;;;7.40;;
82948;SDS011;72736;50.236;18.876;2023-09-30T19:15:02;11.30;;;4.40;;
82948;SDS011;72736;50.236;18.876;2023-09-30T19:20:09;9.90;;;4.20;;
82948;SDS011;72736;50.236;18.876;2023-09-30T19:25:18;8.80;;;4.30;;
82948;SDS011;72736;50.236;18.876;2023-09-30T19:30:24;9.70;;;4.60;;
82948;SDS011;72736;50.236;18.876;2023-09-30T19:35:29;9.50;;;5.70;;
82948;SDS011;72736;50.236;18.876;2023-09-30T19:40:35;10.10;;;5.10;;
82948;SDS011;72736;50.236;18.876;2023-09-30T19:51:11;15.30;;;7.50;;
82948;SDS011;72736;50.236;18.876;2023-09-30T19:56:25;14.50;;;7.70;;
82948;SDS011;72736;50.236;18.876;2023-09-30T20:01:30;24.70;;;9.30;;
82948;SDS011;72736;50.236;18.876;2023-09-30T20:06:37;18.70;;;10.50;;
82948;SDS011;72736;50.236;18.876;2023-09-30T20:11:43;16.90;;;9.30;;
82948;SDS011;72736;50.236;18.876;2023-09-30T20:21:53;18.00;;;8.40;;
82948;SDS011;72736;50.236;18.876;2023-09-30T20:26:59;15.40;;;7.80;;
82948;SDS011;72736;50.236;18.876;2023-09-30T20:32:05;15.20;;;8.70;;
82948;SDS011;72736;50.236;18.876;2023-09-30T20:37:11;18.00;;;8.70;;
82948;SDS011;72736;50.236;18.876;2023-09-30T20:42:17;15.10;;;8.10;;
82948;SDS011;72736;50.236;18.876;2023-09-30T20:47:22;15.10;;;7.80;;
82948;SDS011;72736;50.236;18.876;2023-09-30T20:52:28;13.30;;;7.60;;
82948;SDS011;72736;50.236;18.876;2023-09-30T20:57:34;17.30;;;8.50;;
82948;SDS011;72736;50.236;18.876;2023-09-30T21:02:41;14.00;;;8.30;;
82948;SDS011;72736;50.236;18.876;2023-09-30T21:07:48;13.50;;;7.10;;
82948;SDS011;72736;50.236;18.876;2023-09-30T21:12:54;12.40;;;6.80;;
82948;SDS011;72736;50.236;18.876;2023-09-30T21:18:02;14.60;;;7.00;;
82948;SDS011;72736;50.236;18.876;2023-09-30T21:23:12;14.40;;;8.10;;
82948;SDS011;72736;50.236;18.876;2023-09-30T21:28:17;13.10;;;7.70;;
82948;SDS011;72736;50.236;18.876;2023-09-30T21:33:25;14.60;;;8.10;;
82948;SDS011;72736;50.236;18.876;2023-09-30T21:38:30;16.20;;;9.80;;
82948;SDS011;72736;50.236;18.876;2023-09-30T21:43:36;16.00;;;8.60;;
82948;SDS011;72736;50.236;18.876;2023-09-30T21:48:42;16.40;;;7.90;;
82948;SDS011;72736;50.236;18.876;2023-09-30T21:53:49;12.10;;;6.40;;
82948;SDS011;72736;50.236;18.876;2023-09-30T21:58:57;13.20;;;5.90;;
82948;SDS011;72736;50.236;18.876;2023-09-30T22:04:07;13.90;;;7.00;;
82948;SDS011;72736;50.236;18.876;2023-09-30T22:09:13;13.40;;;7.30;;
82948;SDS011;72736;50.236;18.876;2023-09-30T22:14:20;16.80;;;6.80;;
82948;SDS011;72736;50.236;18.876;2023-09-30T22:24:30;14.20;;;7.10;;
82948;SDS011;72736;50.236;18.876;2023-09-30T22:29:41;14.70;;;6.60;;
82948;SDS011;72736;50.236;18.876;2023-09-30T22:34:48;12.20;;;6.10;;
82948;SDS011;72736;50.236;18.876;2023-09-30T22:39:55;13.00;;;6.20;;
82948;SDS011;72736;50.236;18.876;2023-09-30T22:45:02;14.10;;;6.30;;
82948;SDS011;72736;50.236;18.876;2023-09-30T22:50:09;14.30;;;6.90;;
82948;SDS011;72736;50.236;18.876;2023-09-30T22:55:17;13.30;;;6.80;;
82948;SDS011;72736;50.236;18.876;2023-09-30T23:00:26;15.50;;;6.90;;
82948;SDS011;72736;50.236;18.876;2023-09-30T23:05:36;16.40;;;8.10;;
82948;SDS011;72736;50.236;18.876;2023-09-30T23:10:42;18.80;;;7.70;;
82948;SDS011;72736;50.236;18.876;2023-09-30T23:15:50;18.10;;;6.60;;
82948;SDS011;72736;50.236;18.876;2023-09-30T23:20:57;16.40;;;6.60;;
82948;SDS011;72736;50.236;18.876;2023-09-30T23:26:05;14.40;;;6.30;;
82948;SDS011;72736;50.236;18.876;2023-09-30T23:31:14;16.50;;;7.00;;
82948;SDS011;72736;50.236;18.876;2023-09-30T23:36:23;18.00;;;6.60;;
82948;SDS011;72736;50.236;18.876;2023-09-30T23:41:32;16.30;;;6.30;;
82948;SDS011;72736;50.236;18.876;2023-09-30T23:46:45;10.40;;;5.40;;
82948;SDS011;72736;50.236;18.876;2023-09-30T23:51:58;14.80;;;5.40;;
82948;SDS011;72736;50.236;18.876;2023-09-30T23:57:05;10.20;;;4.80;;
